createdAt,value
2023-03-11T00:02:26.293Z,1.80
2023-03-11T00:07:29.490Z,1.50
2023-03-11T00:12:32.299Z,1.40
2023-03-11T00:17:36.107Z,1.40
2023-03-11T00:22:38.215Z,1.10
2023-03-11T00:27:40.748Z,1.20
2023-03-11T00:32:43.802Z,1.10
2023-03-11T00:37:49.005Z,0.70
2023-03-11T00:42:53.210Z,0.90
2023-03-11T00:47:56.437Z,0.80
2023-03-11T00:53:18.770Z,0.50
2023-03-11T00:58:22.875Z,0.60
2023-03-11T01:03:29.149Z,0.40
2023-03-11T01:08:31.919Z,0.50
2023-03-11T01:13:34.806Z,0.50
2023-03-11T01:18:36.803Z,0.50
2023-03-11T01:23:40.402Z,0.60
2023-03-11T01:28:42.449Z,0.40
2023-03-11T01:33:44.526Z,0.50
2023-03-11T01:38:47.468Z,0.60
2023-03-11T01:43:54.554Z,0.50
2023-03-11T01:54:21.664Z,0.70
2023-03-11T01:59:29.064Z,0.60
2023-03-11T02:04:34.726Z,0.70
2023-03-11T02:09:37.869Z,0.60
2023-03-11T02:14:45.156Z,0.80
2023-03-11T02:20:06.966Z,0.90
2023-03-11T02:25:29.276Z,0.80
2023-03-11T02:30:34.232Z,0.50
2023-03-11T02:35:36.677Z,0.50
2023-03-11T02:40:48.706Z,0.60
2023-03-11T02:45:52.528Z,1.00
2023-03-11T02:50:55.138Z,0.80
2023-03-11T02:55:57.665Z,0.60
2023-03-11T03:00:59.910Z,0.70
2023-03-11T03:06:02.395Z,0.80
2023-03-11T03:11:04.871Z,0.70
2023-03-11T03:16:07.899Z,0.80
2023-03-11T03:21:10.837Z,0.70
2023-03-11T03:26:14.496Z,1.00
2023-03-11T03:31:19.185Z,1.00
2023-03-11T03:36:21.453Z,0.80
2023-03-11T03:41:29.726Z,0.80
2023-03-11T03:46:32.957Z,0.70
2023-03-11T03:51:35.409Z,0.80
2023-03-11T03:56:43.624Z,0.90
2023-03-11T04:01:46.711Z,0.70
2023-03-11T04:06:50.789Z,0.80
2023-03-11T04:11:53.804Z,0.80
2023-03-11T04:16:57.890Z,0.90
2023-03-11T04:22:01.701Z,0.70
2023-03-11T04:27:05.499Z,0.70
2023-03-11T04:32:08.678Z,0.80
2023-03-11T04:37:12.431Z,0.60
2023-03-11T04:42:15.293Z,0.60
2023-03-11T04:47:18.007Z,0.60
2023-03-11T04:52:20.136Z,0.80
2023-03-11T04:57:25.292Z,0.80
2023-03-11T05:02:28.215Z,0.60
2023-03-11T05:07:34.283Z,0.50
2023-03-11T05:12:37.568Z,0.50
2023-03-11T05:17:40.501Z,0.60
2023-03-11T05:22:43.317Z,0.40
2023-03-11T05:27:49.202Z,0.50
2023-03-11T05:32:56.388Z,0.50
2023-03-11T05:38:05.312Z,0.60
2023-03-11T05:43:12.212Z,0.60
2023-03-11T05:48:17.653Z,0.70
2023-03-11T05:53:25.797Z,0.80
2023-03-11T05:58:32.769Z,1.00
2023-03-11T06:03:35.608Z,1.40
2023-03-11T06:08:46.051Z,1.10
2023-03-11T06:13:48.801Z,1.00
2023-03-11T06:18:52.277Z,1.10
2023-03-11T06:23:55.663Z,1.20
2023-03-11T06:28:58.851Z,1.00
2023-03-11T06:34:02.623Z,0.90
2023-03-11T06:39:05.864Z,1.00
2023-03-11T06:44:11.795Z,1.00
2023-03-11T06:49:14.845Z,1.20
2023-03-11T06:54:17.534Z,1.40
2023-03-11T06:59:20.905Z,1.40
2023-03-11T07:04:23.784Z,1.60
2023-03-11T07:09:29.603Z,1.40
2023-03-11T07:14:32.734Z,1.90
2023-03-11T07:19:35.299Z,2.10
2023-03-11T07:24:37.758Z,1.60
2023-03-11T07:29:42.721Z,1.70
2023-03-11T07:34:45.169Z,1.60
2023-03-11T07:39:47.912Z,1.40
2023-03-11T07:44:51.908Z,2.00
2023-03-11T07:49:57.389Z,2.00
2023-03-11T07:55:00.130Z,1.70
2023-03-11T08:00:02.788Z,1.90
2023-03-11T08:05:13.841Z,2.00
2023-03-11T08:10:15.842Z,2.50
2023-03-11T08:15:18.120Z,2.50
2023-03-11T08:20:26.157Z,3.40
2023-03-11T08:25:41.067Z,3.40
2023-03-11T08:30:43.398Z,3.20
2023-03-11T08:35:48.831Z,3.60
2023-03-11T08:40:51.932Z,3.90
2023-03-11T08:45:55.809Z,3.10
2023-03-11T08:51:01.226Z,4.50
2023-03-11T08:56:10.340Z,4.20
2023-03-11T09:01:14.560Z,5.20
2023-03-11T09:06:18.549Z,6.10
2023-03-11T09:11:43.531Z,5.70
2023-03-11T09:16:46.771Z,5.40
2023-03-11T09:21:49.706Z,5.60
2023-03-11T09:26:55.353Z,5.10
2023-03-11T09:32:00.902Z,7.20
2023-03-11T09:37:04.417Z,6.30
2023-03-11T09:42:31.884Z,5.70
2023-03-11T09:48:01.062Z,6.10
2023-03-11T09:53:11.875Z,5.60
2023-03-11T09:58:22.736Z,4.00
2023-03-11T10:03:36.762Z,2.80
2023-03-11T10:08:46.377Z,2.80
2023-03-11T10:13:57.195Z,2.90
2023-03-11T10:19:42.076Z,2.40
2023-03-11T10:25:12.332Z,2.70
2023-03-11T10:30:36.759Z,3.20
2023-03-11T10:35:42.843Z,3.10
2023-03-11T10:40:48.098Z,3.50
2023-03-11T10:45:54.084Z,2.40
2023-03-11T10:51:03.837Z,3.30
2023-03-11T10:56:06.622Z,3.20
2023-03-11T11:01:17.459Z,3.20
2023-03-11T11:06:30.202Z,2.60
2023-03-11T11:11:32.314Z,2.90
2023-03-11T11:16:35.708Z,3.10
2023-03-11T11:21:52.506Z,3.00
2023-03-11T11:27:29.558Z,3.00
2023-03-11T11:32:35.144Z,3.50
2023-03-11T11:37:41.742Z,2.40
2023-03-11T11:42:49.798Z,2.10
2023-03-11T11:48:00.345Z,2.90
2023-03-11T11:53:23.758Z,2.40
2023-03-11T11:58:26.728Z,2.70
2023-03-11T12:03:45.890Z,2.80
2023-03-11T12:09:11.606Z,3.90
2023-03-11T12:14:45.633Z,4.10
2023-03-11T12:20:18.665Z,2.70
2023-03-11T12:30:58.224Z,2.90
2023-03-11T12:36:02.054Z,2.40
2023-03-11T12:41:07.084Z,2.60
2023-03-11T12:46:15.141Z,3.10
2023-03-11T12:51:27.504Z,3.80
2023-03-11T12:56:44.260Z,4.00
2023-03-11T13:02:14.620Z,3.60
2023-03-11T13:07:36.883Z,4.20
2023-03-11T13:12:48.788Z,4.50
2023-03-11T13:18:30.528Z,3.70
2023-03-11T13:23:38.485Z,4.20
2023-03-11T13:29:19.660Z,2.90
2023-03-11T13:34:35.553Z,3.70
2023-03-11T13:40:23.956Z,2.50
2023-03-11T13:45:38.609Z,2.80
2023-03-11T13:51:33.223Z,3.60
2023-03-11T13:56:44.749Z,3.60
2023-03-11T14:01:56.040Z,3.70
2023-03-11T14:07:00.230Z,2.70
2023-03-11T14:12:10.481Z,3.60
2023-03-11T14:17:19.805Z,3.70
2023-03-11T14:22:22.024Z,3.60
2023-03-11T14:27:24.835Z,4.00
2023-03-11T14:32:32.740Z,3.60
2023-03-11T14:37:37.923Z,3.00
2023-03-11T14:42:43.698Z,3.30
2023-03-11T14:47:59.686Z,3.80
2023-03-11T14:53:24.424Z,3.40
2023-03-11T14:59:06.450Z,3.00
2023-03-11T15:04:24.239Z,4.10
2023-03-11T15:09:28.393Z,5.50
2023-03-11T15:14:36.275Z,4.40
2023-03-11T15:19:38.535Z,5.60
2023-03-11T15:24:40.989Z,5.50
2023-03-11T15:29:52.480Z,6.60
2023-03-11T15:35:06.365Z,8.20
2023-03-11T15:40:43.832Z,6.00
2023-03-11T15:45:58.217Z,5.20
2023-03-11T15:51:00.817Z,5.70
2023-03-11T15:56:14.201Z,5.80
2023-03-11T16:01:18.925Z,4.70
2023-03-11T16:11:32.716Z,4.80
2023-03-11T16:16:34.841Z,4.80
2023-03-11T16:21:41.688Z,5.20
2023-03-11T16:26:47.220Z,5.50
2023-03-11T16:31:50.000Z,5.00
2023-03-11T16:36:52.619Z,4.20
2023-03-11T16:41:55.327Z,3.60
2023-03-11T16:46:57.667Z,3.60
2023-03-11T16:51:59.860Z,3.70
2023-03-11T16:57:03.183Z,4.60
2023-03-11T17:02:07.079Z,4.30
2023-03-11T17:07:10.427Z,4.60
2023-03-11T17:12:15.877Z,3.90
2023-03-11T17:17:19.288Z,3.40
2023-03-11T17:22:23.151Z,4.30
2023-03-11T17:27:32.316Z,4.50
2023-03-11T17:32:35.443Z,4.60
2023-03-11T17:37:38.234Z,4.80
2023-03-11T17:42:41.699Z,4.60
2023-03-11T17:47:44.888Z,4.00
2023-03-11T17:52:47.821Z,4.60
2023-03-11T17:57:53.075Z,4.70
2023-03-11T18:02:58.339Z,5.00
2023-03-11T18:08:01.050Z,5.80
2023-03-11T18:13:03.856Z,5.40
2023-03-11T18:18:14.410Z,6.40
2023-03-11T18:23:24.692Z,6.00
2023-03-11T18:28:30.136Z,5.70
2023-03-11T18:33:33.010Z,5.30
2023-03-11T18:38:36.004Z,6.20
2023-03-11T18:43:41.652Z,5.10
2023-03-11T18:48:46.987Z,6.30
2023-03-11T18:53:54.418Z,6.50
2023-03-11T18:59:01.731Z,6.40
2023-03-11T19:04:03.997Z,5.40
2023-03-11T19:09:06.901Z,5.90
2023-03-11T19:14:10.093Z,5.10
2023-03-11T19:19:12.662Z,5.10
2023-03-11T19:24:15.379Z,5.20
2023-03-11T19:29:19.250Z,6.00
2023-03-11T19:34:29.420Z,6.10
2023-03-11T19:39:32.454Z,7.70
2023-03-11T19:44:34.479Z,9.50
2023-03-11T19:49:36.969Z,10.20
2023-03-11T19:54:42.507Z,10.60
2023-03-11T19:59:47.668Z,10.40
2023-03-11T20:04:49.882Z,12.10
2023-03-11T20:09:52.112Z,13.10
2023-03-11T20:14:54.243Z,10.90
2023-03-11T20:19:57.214Z,11.60
2023-03-11T20:24:59.556Z,12.00
2023-03-11T20:30:03.028Z,12.40
2023-03-11T20:35:07.170Z,11.50
2023-03-11T20:40:15.636Z,9.90
2023-03-11T20:45:24.759Z,9.20
2023-03-11T20:50:30.101Z,9.80
2023-03-11T20:55:37.778Z,9.10
2023-03-11T21:00:40.559Z,10.20
2023-03-11T21:05:43.263Z,9.40
2023-03-11T21:10:47.853Z,10.90
2023-03-11T21:15:56.025Z,12.30
2023-03-11T21:21:01.783Z,10.40
2023-03-11T21:26:04.979Z,11.30
2023-03-11T21:31:11.608Z,9.60
2023-03-11T21:36:17.347Z,9.60
2023-03-11T21:41:26.306Z,9.40
2023-03-11T21:46:32.405Z,9.80
2023-03-11T21:51:35.146Z,8.20
2023-03-11T21:56:40.209Z,8.00
2023-03-11T22:01:43.173Z,9.80
2023-03-11T22:06:46.349Z,9.30
2023-03-11T22:11:51.598Z,10.50
2023-03-11T22:16:54.113Z,10.50
2023-03-11T22:21:56.422Z,10.20
2023-03-11T22:26:59.286Z,12.10
2023-03-11T22:32:01.614Z,12.20
2023-03-11T22:37:04.428Z,13.10
2023-03-11T22:42:08.554Z,11.60
2023-03-11T22:47:12.359Z,12.30
2023-03-11T22:52:19.014Z,11.40
2023-03-11T22:57:21.712Z,10.90
2023-03-11T23:02:23.889Z,11.60
2023-03-11T23:07:26.910Z,10.30
2023-03-11T23:12:29.509Z,10.80
2023-03-11T23:17:44.500Z,10.30
2023-03-11T23:22:47.287Z,10.60
2023-03-11T23:27:58.425Z,11.00
2023-03-11T23:33:02.989Z,11.50
2023-03-11T23:38:05.781Z,11.50
2023-03-11T23:43:08.609Z,13.10
2023-03-11T23:48:11.044Z,14.20
2023-03-11T23:53:14.968Z,16.00
2023-03-11T23:58:19.177Z,15.90
